sensor_id;sensor_type;location;lat;lon;timestamp;pressure;altitude;pressure_sealevel;temperature;humidity
66588;BME280;53446;50.076;8.198;2024-01-06T00:00:57;98323.78;;;4.13;100.00
66588;BME280;53446;50.076;8.198;2024-01-06T00:02:57;98326.16;;;4.18;100.00
66588;BME280;53446;50.076;8.198;2024-01-06T00:04:58;98329.50;;;4.21;100.00
66588;BME280;53446;50.076;8.198;2024-01-06T00:06:58;98342.47;;;4.28;100.00
66588;BME280;53446;50.076;8.198;2024-01-06T00:08:58;98332.41;;;4.31;100.00
66588;BME280;53446;50.076;8.198;2024-01-06T00:10:58;98324.06;;;4.36;100.00
66588;BME280;53446;50.076;8.198;2024-01-06T00:13:03;98336.06;;;4.43;100.00
66588;BME280;53446;50.076;8.198;2024-01-06T00:15:03;98335.31;;;4.41;100.00
66588;BME280;53446;50.076;8.198;2024-01-06T00:17:04;98339.91;;;4.39;100.00
66588;BME280;53446;50.076;8.198;2024-01-06T00:19:04;98338.75;;;4.43;100.00
66588;BME280;53446;50.076;8.198;2024-01-06T00:21:04;98339.50;;;4.45;100.00
66588;BME280;53446;50.076;8.198;2024-01-06T00:23:04;98343.69;;;4.49;100.00
66588;BME280;53446;50.076;8.198;2024-01-06T00:25:05;98342.50;;;4.53;100.00
66588;BME280;53446;50.076;8.198;2024-01-06T00:27:05;98343.16;;;4.57;100.00
66588;BME280;53446;50.076;8.198;2024-01-06T00:29:06;98334.81;;;4.61;100.00
66588;BME280;53446;50.076;8.198;2024-01-06T00:31:06;98345.28;;;4.64;100.00
66588;BME280;53446;50.076;8.198;2024-01-06T00:33:07;98347.66;;;4.69;100.00
66588;BME280;53446;50.076;8.198;2024-01-06T00:35:07;98348.31;;;4.73;100.00
66588;BME280;53446;50.076;8.198;2024-01-06T00:37:07;98347.13;;;4.77;100.00
66588;BME280;53446;50.076;8.198;2024-01-06T00:39:08;98344.25;;;4.80;100.00
66588;BME280;53446;50.076;8.198;2024-01-06T00:41:08;98344.03;;;4.83;100.00
66588;BME280;53446;50.076;8.198;2024-01-06T00:43:08;98347.47;;;4.85;100.00
66588;BME280;53446;50.076;8.198;2024-01-06T00:45:09;98349.06;;;4.87;100.00
66588;BME280;53446;50.076;8.198;2024-01-06T00:47:09;98345.31;;;4.90;100.00
66588;BME280;53446;50.076;8.198;2024-01-06T00:49:09;98347.66;;;4.95;100.00
66588;BME280;53446;50.076;8.198;2024-01-06T00:51:09;98341.25;;;4.97;100.00
66588;BME280;53446;50.076;8.198;2024-01-06T00:53:11;98348.09;;;5.01;100.00
66588;BME280;53446;50.076;8.198;2024-01-06T00:55:11;98345.09;;;5.06;100.00
66588;BME280;53446;50.076;8.198;2024-01-06T00:57:12;98342.94;;;5.11;100.00
66588;BME280;53446;50.076;8.198;2024-01-06T00:59:12;98346.25;;;5.15;100.00
66588;BME280;53446;50.076;8.198;2024-01-06T01:01:12;98345.91;;;5.19;100.00
66588;BME280;53446;50.076;8.198;2024-01-06T01:03:12;98351.09;;;5.22;100.00
66588;BME280;53446;50.076;8.198;2024-01-06T01:05:13;98346.34;;;5.26;100.00
66588;BME280;53446;50.076;8.198;2024-01-06T01:07:13;98348.81;;;5.29;100.00
66588;BME280;53446;50.076;8.198;2024-01-06T01:09:13;98356.66;;;5.32;100.00
66588;BME280;53446;50.076;8.198;2024-01-06T01:11:14;98351.06;;;5.35;100.00
66588;BME280;53446;50.076;8.198;2024-01-06T01:13:14;98351.81;;;5.37;100.00
66588;BME280;53446;50.076;8.198;2024-01-06T01:15:14;98356.19;;;5.38;100.00
66588;BME280;53446;50.076;8.198;2024-01-06T01:17:15;98355.97;;;5.41;100.00
66588;BME280;53446;50.076;8.198;2024-01-06T01:19:15;98361.22;;;5.43;100.00
66588;BME280;53446;50.076;8.198;2024-01-06T01:21:15;98356.75;;;5.43;100.00
66588;BME280;53446;50.076;8.198;2024-01-06T01:23:15;98369.16;;;5.44;100.00
66588;BME280;53446;50.076;8.198;2024-01-06T01:25:16;98366.47;;;5.44;100.00
66588;BME280;53446;50.076;8.198;2024-01-06T01:27:16;98367.78;;;5.39;100.00
66588;BME280;53446;50.076;8.198;2024-01-06T01:29:16;98374.00;;;5.39;100.00
66588;BME280;53446;50.076;8.198;2024-01-06T01:31:17;98368.63;;;5.39;100.00
66588;BME280;53446;50.076;8.198;2024-01-06T01:33:17;98369.59;;;5.38;100.00
66588;BME280;53446;50.076;8.198;2024-01-06T01:35:18;98379.34;;;5.39;100.00
66588;BME280;53446;50.076;8.198;2024-01-06T01:37:18;98370.25;;;5.42;100.00
66588;BME280;53446;50.076;8.198;2024-01-06T01:39:19;98379.97;;;5.43;100.00
66588;BME280;53446;50.076;8.198;2024-01-06T01:41:19;98377.19;;;5.44;100.00
66588;BME280;53446;50.076;8.198;2024-01-06T01:43:19;98369.38;;;5.41;100.00
66588;BME280;53446;50.076;8.198;2024-01-06T01:45:20;98370.78;;;5.34;100.00
66588;BME280;53446;50.076;8.198;2024-01-06T01:47:20;98374.66;;;5.30;100.00
66588;BME280;53446;50.076;8.198;2024-01-06T01:49:21;98381.09;;;5.27;100.00
66588;BME280;53446;50.076;8.198;2024-01-06T01:51:23;98380.00;;;5.30;100.00
66588;BME280;53446;50.076;8.198;2024-01-06T01:53:24;98388.81;;;5.32;100.00
66588;BME280;53446;50.076;8.198;2024-01-06T01:55:26;98390.50;;;5.33;100.00
66588;BME280;53446;50.076;8.198;2024-01-06T01:57:27;98390.28;;;5.36;100.00
66588;BME280;53446;50.076;8.198;2024-01-06T01:59:27;98390.09;;;5.39;100.00
66588;BME280;53446;50.076;8.198;2024-01-06T02:01:28;98392.63;;;5.41;100.00
66588;BME280;53446;50.076;8.198;2024-01-06T02:03:30;98391.47;;;5.45;100.00
66588;BME280;53446;50.076;8.198;2024-01-06T02:05:30;98385.75;;;5.49;100.00
66588;BME280;53446;50.076;8.198;2024-01-06T02:07:31;98392.63;;;5.54;100.00
66588;BME280;53446;50.076;8.198;2024-01-06T02:09:31;98398.84;;;5.54;100.00
66588;BME280;53446;50.076;8.198;2024-01-06T02:11:31;98397.00;;;5.55;100.00
66588;BME280;53446;50.076;8.198;2024-01-06T02:13:35;98398.75;;;5.56;100.00
66588;BME280;53446;50.076;8.198;2024-01-06T02:15:36;98401.19;;;5.59;100.00
66588;BME280;53446;50.076;8.198;2024-01-06T02:17:37;98400.97;;;5.62;100.00
66588;BME280;53446;50.076;8.198;2024-01-06T02:19:39;98400.78;;;5.65;100.00
66588;BME280;53446;50.076;8.198;2024-01-06T02:21:42;98407.59;;;5.69;100.00
66588;BME280;53446;50.076;8.198;2024-01-06T02:23:43;98405.56;;;5.72;100.00
66588;BME280;53446;50.076;8.198;2024-01-06T02:25:43;98400.72;;;5.78;100.00
66588;BME280;53446;50.076;8.198;2024-01-06T02:27:43;98408.88;;;5.76;100.00
66588;BME280;53446;50.076;8.198;2024-01-06T02:29:43;98404.59;;;5.73;100.00
66588;BME280;53446;50.076;8.198;2024-01-06T02:31:44;98408.88;;;5.76;100.00
66588;BME280;53446;50.076;8.198;2024-01-06T02:33:44;98410.84;;;5.74;100.00
66588;BME280;53446;50.076;8.198;2024-01-06T02:35:48;98417.81;;;5.77;100.00
66588;BME280;53446;50.076;8.198;2024-01-06T02:37:48;98417.66;;;5.78;100.00
66588;BME280;53446;50.076;8.198;2024-01-06T02:39:48;98415.97;;;5.77;100.00
66588;BME280;53446;50.076;8.198;2024-01-06T02:41:48;98414.03;;;5.79;100.00
66588;BME280;53446;50.076;8.198;2024-01-06T02:43:49;98414.78;;;5.81;100.00
66588;BME280;53446;50.076;8.198;2024-01-06T02:45:49;98412.09;;;5.81;100.00
66588;BME280;53446;50.076;8.198;2024-01-06T02:47:49;98411.47;;;5.78;100.00
66588;BME280;53446;50.076;8.198;2024-01-06T02:49:49;98420.69;;;5.73;100.00
66588;BME280;53446;50.076;8.198;2024-01-06T02:51:50;98425.19;;;5.73;100.00
66588;BME280;53446;50.076;8.198;2024-01-06T02:53:50;98421.75;;;5.71;100.00
66588;BME280;53446;50.076;8.198;2024-01-06T02:55:50;98423.38;;;5.73;100.00
66588;BME280;53446;50.076;8.198;2024-01-06T02:57:50;98412.44;;;5.77;100.00
66588;BME280;53446;50.076;8.198;2024-01-06T02:59:50;98414.03;;;5.79;100.00
66588;BME280;53446;50.076;8.198;2024-01-06T03:01:51;98413.81;;;5.82;100.00
66588;BME280;53446;50.076;8.198;2024-01-06T03:03:51;98415.31;;;5.86;100.00
66588;BME280;53446;50.076;8.198;2024-01-06T03:05:51;98417.75;;;5.89;100.00
66588;BME280;53446;50.076;8.198;2024-01-06T03:07:51;98420.22;;;5.92;100.00
66588;BME280;53446;50.076;8.198;2024-01-06T03:09:52;98424.53;;;5.95;100.00
66588;BME280;53446;50.076;8.198;2024-01-06T03:11:52;98419.06;;;5.97;100.00
66588;BME280;53446;50.076;8.198;2024-01-06T03:13:52;98418.81;;;6.00;100.00
66588;BME280;53446;50.076;8.198;2024-01-06T03:15:52;98418.94;;;5.98;100.00
66588;BME280;53446;50.076;8.198;2024-01-06T03:17:53;98427.00;;;5.98;100.00
66588;BME280;53446;50.076;8.198;2024-01-06T03:19:53;98422.47;;;5.99;100.00
66588;BME280;53446;50.076;8.198;2024-01-06T03:21:53;98418.63;;;6.03;100.00
66588;BME280;53446;50.076;8.198;2024-01-06T03:23:53;98416.69;;;6.05;100.00
66588;BME280;53446;50.076;8.198;2024-01-06T03:25:55;98418.28;;;6.07;100.00
66588;BME280;53446;50.076;8.198;2024-01-06T03:27:55;98420.09;;;6.07;100.00
66588;BME280;53446;50.076;8.198;2024-01-06T03:29:55;98409.25;;;6.08;100.00
66588;BME280;53446;50.076;8.198;2024-01-06T03:31:56;98411.81;;;6.10;100.00
66588;BME280;53446;50.076;8.198;2024-01-06T03:33:56;98410.94;;;6.09;100.00
66588;BME280;53446;50.076;8.198;2024-01-06T03:35:56;98416.31;;;6.09;100.00
66588;BME280;53446;50.076;8.198;2024-01-06T03:37:56;98420.84;;;6.09;100.00
66588;BME280;53446;50.076;8.198;2024-01-06T03:39:57;98428.88;;;6.09;100.00
66588;BME280;53446;50.076;8.198;2024-01-06T03:41:57;98423.31;;;6.12;100.00
66588;BME280;53446;50.076;8.198;2024-01-06T03:43:58;98425.13;;;6.11;100.00
66588;BME280;53446;50.076;8.198;2024-01-06T03:45:58;98427.78;;;6.11;100.00
66588;BME280;53446;50.076;8.198;2024-01-06T03:48:00;98432.06;;;6.14;100.00
66588;BME280;53446;50.076;8.198;2024-01-06T03:50:00;98430.03;;;6.18;100.00
66588;BME280;53446;50.076;8.198;2024-01-06T03:52:00;98431.03;;;6.17;100.00
66588;BME280;53446;50.076;8.198;2024-01-06T03:54:01;98437.00;;;6.20;100.00
66588;BME280;53446;50.076;8.198;2024-01-06T03:56:03;98427.88;;;6.23;100.00
66588;BME280;53446;50.076;8.198;2024-01-06T03:58:03;98442.28;;;6.22;100.00
66588;BME280;53446;50.076;8.198;2024-01-06T04:00:04;98444.81;;;6.23;100.00
66588;BME280;53446;50.076;8.198;2024-01-06T04:02:05;98448.50;;;6.22;100.00
66588;BME280;53446;50.076;8.198;2024-01-06T04:04:05;98446.75;;;6.21;100.00
66588;BME280;53446;50.076;8.198;2024-01-06T04:06:06;98451.50;;;6.18;100.00
66588;BME280;53446;50.076;8.198;2024-01-06T04:08:06;98448.81;;;6.18;100.00
66588;BME280;53446;50.076;8.198;2024-01-06T04:10:07;98435.50;;;6.16;100.00
66588;BME280;53446;50.076;8.198;2024-01-06T04:12:07;98439.94;;;6.17;100.00
66588;BME280;53446;50.076;8.198;2024-01-06T04:14:07;98438.19;;;6.16;100.00
66588;BME280;53446;50.076;8.198;2024-01-06T04:16:08;98435.50;;;6.16;100.00
66588;BME280;53446;50.076;8.198;2024-01-06T04:18:08;98434.56;;;6.17;100.00
66588;BME280;53446;50.076;8.198;2024-01-06T04:20:10;98440.78;;;6.18;100.00
66588;BME280;53446;50.076;8.198;2024-01-06T04:22:12;98443.56;;;6.16;100.00
66588;BME280;53446;50.076;8.198;2024-01-06T04:24:13;98446.25;;;6.16;100.00
66588;BME280;53446;50.076;8.198;2024-01-06T04:26:13;98450.88;;;6.14;100.00
66588;BME280;53446;50.076;8.198;2024-01-06T04:28:13;98453.78;;;6.11;100.00
66588;BME280;53446;50.076;8.198;2024-01-06T04:30:14;98459.91;;;6.13;100.00
66588;BME280;53446;50.076;8.198;2024-01-06T04:32:14;98453.03;;;6.09;100.00
66588;BME280;53446;50.076;8.198;2024-01-06T04:34:14;98458.41;;;6.09;100.00
66588;BME280;53446;50.076;8.198;2024-01-06T04:36:15;98450.34;;;6.09;100.00
66588;BME280;53446;50.076;8.198;2024-01-06T04:38:15;98453.88;;;6.09;100.00
66588;BME280;53446;50.076;8.198;2024-01-06T04:40:15;98450.34;;;6.09;100.00
66588;BME280;53446;50.076;8.198;2024-01-06T04:42:16;98453.03;;;6.09;100.00
66588;BME280;53446;50.076;8.198;2024-01-06T04:44:19;98453.03;;;6.09;100.00
66588;BME280;53446;50.076;8.198;2024-01-06T04:46:20;98447.66;;;6.09;100.00
66588;BME280;53446;50.076;8.198;2024-01-06T04:48:20;98445.72;;;6.11;100.00
66588;BME280;53446;50.076;8.198;2024-01-06T04:50:21;98452.84;;;6.12;100.00
66588;BME280;53446;50.076;8.198;2024-01-06T04:52:21;98447.22;;;6.15;100.00
66588;BME280;53446;50.076;8.198;2024-01-06T04:54:21;98446.16;;;6.18;100.00
66588;BME280;53446;50.076;8.198;2024-01-06T04:56:21;98447.63;;;6.22;100.00
66588;BME280;53446;50.076;8.198;2024-01-06T04:58:22;98454.47;;;6.26;100.00
66588;BME280;53446;50.076;8.198;2024-01-06T05:00:22;98458.16;;;6.25;100.00
66588;BME280;53446;50.076;8.198;2024-01-06T05:02:22;98455.56;;;6.23;100.00
66588;BME280;53446;50.076;8.198;2024-01-06T05:04:23;98453.13;;;6.20;100.00
66588;BME280;53446;50.076;8.198;2024-01-06T05:06:23;98453.00;;;6.22;100.00
66588;BME280;53446;50.076;8.198;2024-01-06T05:08:24;98457.41;;;6.23;100.00
66588;BME280;53446;50.076;8.198;2024-01-06T05:10:24;98460.81;;;6.25;100.00
66588;BME280;53446;50.076;8.198;2024-01-06T05:12:24;98461.81;;;6.24;100.00
66588;BME280;53446;50.076;8.198;2024-01-06T05:14:25;98460.19;;;6.21;100.00
66588;BME280;53446;50.076;8.198;2024-01-06T05:16:25;98469.13;;;6.22;100.00
66588;BME280;53446;50.076;8.198;2024-01-06T05:18:25;98476.09;;;6.24;100.00
66588;BME280;53446;50.076;8.198;2024-01-06T05:20:25;98468.88;;;6.25;100.00
66588;BME280;53446;50.076;8.198;2024-01-06T05:22:26;98476.09;;;6.24;100.00
66588;BME280;53446;50.076;8.198;2024-01-06T05:24:26;98466.94;;;6.27;100.00
66588;BME280;53446;50.076;8.198;2024-01-06T05:26:26;98464.25;;;6.27;100.00
66588;BME280;53446;50.076;8.198;2024-01-06T05:28:26;98467.78;;;6.27;100.00
66588;BME280;53446;50.076;8.198;2024-01-06T05:30:27;98467.69;;;6.29;100.00
66588;BME280;53446;50.076;8.198;2024-01-06T05:32:27;98466.72;;;6.30;100.00
66588;BME280;53446;50.076;8.198;2024-01-06T05:34:27;98469.16;;;6.33;100.00
66588;BME280;53446;50.076;8.198;2024-01-06T05:36:27;98473.34;;;6.37;100.00
66588;BME280;53446;50.076;8.198;2024-01-06T05:38:28;98474.00;;;6.41;100.00
66588;BME280;53446;50.076;8.198;2024-01-06T05:40:28;98475.44;;;6.45;100.00
66588;BME280;53446;50.076;8.198;2024-01-06T05:42:28;98468.13;;;6.47;100.00
66588;BME280;53446;50.076;8.198;2024-01-06T05:44:28;98474.41;;;6.47;100.00
66588;BME280;53446;50.076;8.198;2024-01-06T05:46:29;98471.81;;;6.46;100.00
66588;BME280;53446;50.076;8.198;2024-01-06T05:48:29;98477.06;;;6.47;100.00
66588;BME280;53446;50.076;8.198;2024-01-06T05:50:29;98482.44;;;6.47;100.00
66588;BME280;53446;50.076;8.198;2024-01-06T05:52:30;98489.63;;;6.47;100.00
66588;BME280;53446;50.076;8.198;2024-01-06T05:54:30;98495.00;;;6.47;100.00
66588;BME280;53446;50.076;8.198;2024-01-06T05:56:30;98487.94;;;6.46;100.00
66588;BME280;53446;50.076;8.198;2024-01-06T05:58:31;98491.56;;;6.45;100.00
66588;BME280;53446;50.076;8.198;2024-01-06T06:00:31;98484.50;;;6.44;100.00
66588;BME280;53446;50.076;8.198;2024-01-06T06:02:31;98491.78;;;6.42;100.00
66588;BME280;53446;50.076;8.198;2024-01-06T06:04:32;98489.13;;;6.42;100.00
66588;BME280;53446;50.076;8.198;2024-01-06T06:06:32;98496.31;;;6.41;100.00
66588;BME280;53446;50.076;8.198;2024-01-06T06:08:33;98495.34;;;6.42;100.00
66588;BME280;53446;50.076;8.198;2024-01-06T06:10:33;98493.41;;;6.44;100.00
66588;BME280;53446;50.076;8.198;2024-01-06T06:12:41;98499.09;;;6.40;100.00
66588;BME280;53446;50.076;8.198;2024-01-06T06:14:41;98488.69;;;6.35;100.00
66588;BME280;53446;50.076;8.198;2024-01-06T06:16:41;98494.63;;;6.27;100.00
66588;BME280;53446;50.076;8.198;2024-01-06T06:18:42;98490.25;;;6.26;100.00
66588;BME280;53446;50.076;8.198;2024-01-06T06:20:42;98493.13;;;6.23;100.00
66588;BME280;53446;50.076;8.198;2024-01-06T06:22:43;98494.88;;;6.24;100.00
66588;BME280;53446;50.076;8.198;2024-01-06T06:24:44;98498.41;;;6.25;100.00
66588;BME280;53446;50.076;8.198;2024-01-06T06:26:44;98493.38;;;6.20;100.00
66588;BME280;53446;50.076;8.198;2024-01-06T06:28:44;98500.44;;;6.21;100.00
66588;BME280;53446;50.076;8.198;2024-01-06T06:30:44;98507.66;;;6.21;100.00
66588;BME280;53446;50.076;8.198;2024-01-06T06:32:45;98517.00;;;6.15;100.00
66588;BME280;53446;50.076;8.198;2024-01-06T06:34:46;98521.53;;;6.14;100.00
66588;BME280;53446;50.076;8.198;2024-01-06T06:36:46;98524.97;;;6.17;100.00
66588;BME280;53446;50.076;8.198;2024-01-06T06:38:46;98522.28;;;6.17;100.00
66588;BME280;53446;50.076;8.198;2024-01-06T06:40:47;98526.00;;;6.14;100.00
66588;BME280;53446;50.076;8.198;2024-01-06T06:42:47;98532.47;;;6.11;100.00
66588;BME280;53446;50.076;8.198;2024-01-06T06:44:48;98529.91;;;6.10;100.00
66588;BME280;53446;50.076;8.198;2024-01-06T06:46:48;98538.16;;;6.07;100.00
66588;BME280;53446;50.076;8.198;2024-01-06T06:48:48;98540.84;;;6.07;100.00
66588;BME280;53446;50.076;8.198;2024-01-06T06:50:48;98542.59;;;6.08;100.00
66588;BME280;53446;50.076;8.198;2024-01-06T06:52:49;98544.28;;;6.09;100.00
66588;BME280;53446;50.076;8.198;2024-01-06T06:54:49;98549.88;;;6.06;100.00
66588;BME280;53446;50.076;8.198;2024-01-06T06:56:49;98556.31;;;6.03;100.00
66588;BME280;53446;50.076;8.198;2024-01-06T06:58:49;98558.25;;;6.01;100.00
66588;BME280;53446;50.076;8.198;2024-01-06T07:00:50;98563.00;;;5.98;100.00
66588;BME280;53446;50.076;8.198;2024-01-06T07:02:50;98568.56;;;5.94;100.00
66588;BME280;53446;50.076;8.198;2024-01-06T07:04:50;98567.72;;;5.94;100.00
66588;BME280;53446;50.076;8.198;2024-01-06T07:06:51;98570.47;;;5.92;100.00
66588;BME280;53446;50.076;8.198;2024-01-06T07:08:51;98575.81;;;5.92;100.00
66588;BME280;53446;50.076;8.198;2024-01-06T07:10:51;98575.75;;;5.94;100.00
66588;BME280;53446;50.076;8.198;2024-01-06T07:12:52;98576.59;;;5.94;100.00
66588;BME280;53446;50.076;8.198;2024-01-06T07:14:52;98573.94;;;5.94;100.00
66588;BME280;53446;50.076;8.198;2024-01-06T07:16:53;98579.47;;;5.91;100.00
66588;BME280;53446;50.076;8.198;2024-01-06T07:18:53;98576.81;;;5.91;100.00
66588;BME280;53446;50.076;8.198;2024-01-06T07:20:53;98577.75;;;5.90;100.00
66588;BME280;53446;50.076;8.198;2024-01-06T07:22:53;98585.78;;;5.90;100.00
66588;BME280;53446;50.076;8.198;2024-01-06T07:24:54;98576.69;;;5.93;100.00
66588;BME280;53446;50.076;8.198;2024-01-06T07:26:54;98581.13;;;5.94;100.00
66588;BME280;53446;50.076;8.198;2024-01-06T07:28:54;98579.28;;;5.94;100.00
66588;BME280;53446;50.076;8.198;2024-01-06T07:30:55;98588.09;;;5.97;100.00
66588;BME280;53446;50.076;8.198;2024-01-06T07:32:55;98594.97;;;6.01;100.00
66588;BME280;53446;50.076;8.198;2024-01-06T07:34:55;98600.00;;;6.05;100.00
66588;BME280;53446;50.076;8.198;2024-01-06T07:36:56;98597.97;;;6.09;100.00
66588;BME280;53446;50.076;8.198;2024-01-06T07:38:57;98607.75;;;6.10;100.00
66588;BME280;53446;50.076;8.198;2024-01-06T07:40:58;98607.63;;;6.11;100.00
66588;BME280;53446;50.076;8.198;2024-01-06T07:42:58;98610.84;;;6.17;100.00
66588;BME280;53446;50.076;8.198;2024-01-06T07:44:58;98616.84;;;6.20;100.00
66588;BME280;53446;50.076;8.198;2024-01-06T07:46:58;98623.72;;;6.24;100.00
66588;BME280;53446;50.076;8.198;2024-01-06T07:48:59;98625.25;;;6.28;100.00
66588;BME280;53446;50.076;8.198;2024-01-06T07:50:59;98631.22;;;6.32;100.00
66588;BME280;53446;50.076;8.198;2024-01-06T07:52:59;98626.38;;;6.37;100.00
66588;BME280;53446;50.076;8.198;2024-01-06T07:55:00;98633.34;;;6.40;100.00
66588;BME280;53446;50.076;8.198;2024-01-06T07:57:00;98638.63;;;6.41;100.00
66588;BME280;53446;50.076;8.198;2024-01-06T07:59:04;98630.47;;;6.43;100.00
66588;BME280;53446;50.076;8.198;2024-01-06T08:01:04;98643.69;;;6.46;100.00
66588;BME280;53446;50.076;8.198;2024-01-06T08:03:04;98650.88;;;6.45;100.00
66588;BME280;53446;50.076;8.198;2024-01-06T08:05:06;98649.28;;;6.43;100.00
66588;BME280;53446;50.076;8.198;2024-01-06T08:07:07;98661.72;;;6.44;100.00
66588;BME280;53446;50.076;8.198;2024-01-06T08:09:07;98651.72;;;6.46;100.00
66588;BME280;53446;50.076;8.198;2024-01-06T08:11:08;98652.47;;;6.48;100.00
66588;BME280;53446;50.076;8.198;2024-01-06T08:13:08;98662.00;;;6.52;100.00
66588;BME280;53446;50.076;8.198;2024-01-06T08:15:09;98654.84;;;6.52;100.00
66588;BME280;53446;50.076;8.198;2024-01-06T08:17:09;98650.31;;;6.53;100.00
66588;BME280;53446;50.076;8.198;2024-01-06T08:19:09;98649.25;;;6.55;100.00
66588;BME280;53446;50.076;8.198;2024-01-06T08:21:10;98649.00;;;6.58;100.00
66588;BME280;53446;50.076;8.198;2024-01-06T08:23:10;98653.09;;;6.64;100.00
66588;BME280;53446;50.076;8.198;2024-01-06T08:25:11;98658.16;;;6.69;100.00
66588;BME280;53446;50.076;8.198;2024-01-06T08:27:11;98655.00;;;6.75;100.00
66588;BME280;53446;50.076;8.198;2024-01-06T08:29:11;98657.34;;;6.79;100.00
66588;BME280;53446;50.076;8.198;2024-01-06T08:31:12;98657.75;;;6.86;100.00
66588;BME280;53446;50.076;8.198;2024-01-06T08:33:12;98658.19;;;6.93;100.00
66588;BME280;53446;50.076;8.198;2024-01-06T08:35:12;98659.56;;;6.98;100.00
66588;BME280;53446;50.076;8.198;2024-01-06T08:37:13;98660.06;;;7.04;100.00
66588;BME280;53446;50.076;8.198;2024-01-06T08:39:14;98662.41;;;7.08;100.00
66588;BME280;53446;50.076;8.198;2024-01-06T08:41:14;98664.16;;;7.09;100.00
66588;BME280;53446;50.076;8.198;2024-01-06T08:43:14;98664.25;;;7.08;100.00
66588;BME280;53446;50.076;8.198;2024-01-06T08:45:15;98665.84;;;7.10;100.00
66588;BME280;53446;50.076;8.198;2024-01-06T08:47:15;98670.13;;;7.13;100.00
66588;BME280;53446;50.076;8.198;2024-01-06T08:49:16;98674.44;;;7.15;100.00
66588;BME280;53446;50.076;8.198;2024-01-06T08:51:16;98676.91;;;7.18;100.00
66588;BME280;53446;50.076;8.198;2024-01-06T08:53:16;98676.34;;;7.26;100.00
66588;BME280;53446;50.076;8.198;2024-01-06T08:55:17;98680.13;;;7.24;100.00
66588;BME280;53446;50.076;8.198;2024-01-06T08:57:17;98676.34;;;7.26;100.00
66588;BME280;53446;50.076;8.198;2024-01-06T08:59:18;98684.16;;;7.29;100.00
66588;BME280;53446;50.076;8.198;2024-01-06T09:01:18;98678.44;;;7.34;100.00
66588;BME280;53446;50.076;8.198;2024-01-06T09:03:18;98690.94;;;7.35;100.00
66588;BME280;53446;50.076;8.198;2024-01-06T09:05:24;98682.75;;;7.36;100.00
66588;BME280;53446;50.076;8.198;2024-01-06T09:07:25;98691.56;;;7.38;100.00
66588;BME280;53446;50.076;8.198;2024-01-06T09:09:25;98684.47;;;7.37;100.00
66588;BME280;53446;50.076;8.198;2024-01-06T09:11:25;98678.94;;;7.28;100.00
66588;BME280;53446;50.076;8.198;2024-01-06T09:13:26;98691.09;;;7.20;100.00
66588;BME280;53446;50.076;8.198;2024-01-06T09:15:26;98696.06;;;7.14;100.00
66588;BME280;53446;50.076;8.198;2024-01-06T09:17:26;98693.06;;;7.06;100.00
66588;BME280;53446;50.076;8.198;2024-01-06T09:19:26;98698.91;;;6.99;100.00
66588;BME280;53446;50.076;8.198;2024-01-06T09:21:28;98705.88;;;7.02;100.00
66588;BME280;53446;50.076;8.198;2024-01-06T09:23:28;98700.50;;;7.02;100.00
66588;BME280;53446;50.076;8.198;2024-01-06T09:25:28;98716.66;;;7.02;100.00
66588;BME280;53446;50.076;8.198;2024-01-06T09:27:29;98723.38;;;7.08;100.00
66588;BME280;53446;50.076;8.198;2024-01-06T09:29:29;98715.97;;;7.11;100.00
66588;BME280;53446;50.076;8.198;2024-01-06T09:31:30;98718.31;;;7.16;100.00
66588;BME280;53446;50.076;8.198;2024-01-06T09:33:30;98717.00;;;7.21;100.00
66588;BME280;53446;50.076;8.198;2024-01-06T09:35:32;98723.88;;;7.26;100.00
66588;BME280;53446;50.076;8.198;2024-01-06T09:37:32;98715.47;;;7.30;100.00
66588;BME280;53446;50.076;8.198;2024-01-06T09:39:33;98719.63;;;7.34;100.00
66588;BME280;53446;50.076;8.198;2024-01-06T09:41:33;98720.38;;;7.36;100.00
66588;BME280;53446;50.076;8.198;2024-01-06T09:43:33;98713.16;;;7.37;100.00
66588;BME280;53446;50.076;8.198;2024-01-06T09:45:34;98726.41;;;7.40;100.00
66588;BME280;53446;50.076;8.198;2024-01-06T09:47:35;98719.09;;;7.42;100.00
66588;BME280;53446;50.076;8.198;2024-01-06T09:49:38;98729.63;;;7.45;100.00
66588;BME280;53446;50.076;8.198;2024-01-06T09:51:39;98733.66;;;7.51;100.00
66588;BME280;53446;50.076;8.198;2024-01-06T09:53:49;98733.31;;;7.55;100.00
66588;BME280;53446;50.076;8.198;2024-01-06T09:55:53;98732.13;;;7.59;100.00
66588;BME280;53446;50.076;8.198;2024-01-06T09:57:54;98730.94;;;7.63;100.00
66588;BME280;53446;50.076;8.198;2024-01-06T09:59:55;98732.31;;;7.69;100.00
66588;BME280;53446;50.076;8.198;2024-01-06T10:01:57;98745.16;;;7.77;100.00
66588;BME280;53446;50.076;8.198;2024-01-06T10:03:57;98742.78;;;7.85;100.00
66588;BME280;53446;50.076;8.198;2024-01-06T10:05:57;98744.13;;;7.91;100.00
66588;BME280;53446;50.076;8.198;2024-01-06T10:08:00;98742.81;;;7.96;100.00
66588;BME280;53446;50.076;8.198;2024-01-06T10:10:00;98742.94;;;7.95;100.00
66588;BME280;53446;50.076;8.198;2024-01-06T10:12:01;98746.22;;;7.87;100.00
66588;BME280;53446;50.076;8.198;2024-01-06T10:14:03;98743.47;;;7.76;100.00
66588;BME280;53446;50.076;8.198;2024-01-06T10:16:05;98745.41;;;7.74;100.00
66588;BME280;53446;50.076;8.198;2024-01-06T10:18:05;98743.81;;;7.71;100.00
66588;BME280;53446;50.076;8.198;2024-01-06T10:20:10;98738.31;;;7.73;100.00
66588;BME280;53446;50.076;8.198;2024-01-06T10:22:11;98741.75;;;7.75;100.00
66588;BME280;53446;50.076;8.198;2024-01-06T10:24:12;98737.63;;;7.82;100.00
66588;BME280;53446;50.076;8.198;2024-01-06T10:26:13;98740.59;;;7.90;100.00
66588;BME280;53446;50.076;8.198;2024-01-06T10:28:13;98742.81;;;7.96;100.00
66588;BME280;53446;50.076;8.198;2024-01-06T10:30:14;98746.97;;;8.00;100.00
66588;BME280;53446;50.076;8.198;2024-01-06T10:32:18;98743.09;;;8.04;100.00
66588;BME280;53446;50.076;8.198;2024-01-06T10:34:18;98747.38;;;8.07;100.00
66588;BME280;53446;50.076;8.198;2024-01-06T10:36:19;98756.84;;;8.13;100.00
66588;BME280;53446;50.076;8.198;2024-01-06T10:38:19;98753.16;;;8.14;100.00